Airfield :
LOGIN :

Register | Disclaimer

   EN    FR    IT 

 










Legend :    VFR   Marginal VFR   IFR   Intensive IFR   Very Intensive IFR
Visi :
Ceiling :
>= 8 km
>= 3000ft
5 to 8 km
1000 to 3000 ft
1500m to 5 km
500 to 1000 ft
800 to 1500m
200 to 500 ft
< 800m
< 200 ft
Symbols :   Thunderstorms  Fog  Heavy snow  Heavy precipitations  Wind > 20 kt
SIGMETs :     Misc.  Thunderstorms  Icing  Turbulence  Mountain Waves  Volcanic Ashes







- Airport Elevation : 215 ft
- IATA code : ABZ
- Download approach charts


EGPD - Aberdeen / Dyce

CURRENT METAR :
  • 190420Z AUTO 12010KT 9999 BKN003 OVC013 08/07 Q1033 RERA REDZ BECMG BKN015

EXPIRED METARs :
  • 190350Z AUTO VRB04KT 2500 RADZ OVC003 08/07 Q1033 BECMG 6000 BKN008
  • 190320Z AUTO 13004KT 090V170 2900 -DZ BKN004 BKN008 OVC013 08/07 Q1033 REDZ TEMPO 6000 BKN010
  • 190250Z AUTO 12003KT 9999 OVC014 08/05 Q1033 NOSIG
  • 190220Z AUTO 12002KT 9999 BKN018 OVC027 08/05 Q1034 NOSIG
  • 190150Z AUTO 15004KT 9999 BKN021 08/05 Q1034 NOSIG

TAF AMD TAF EGPD
Valid from the 19 at 03:00 until the 20 at 00:00 UTC


190318Z 1903/1924 14007KT 9999 SCT010 BKN018
TEMPO 1903/1906 2500 BR DZ BKN004
BECMG 1915/1918 08012KT
PROB30
TEMPO 1918/1924 8000 -SHRA BKN014
No reported NOTAMs for that airfield.



MET'MAP, your aeronautical weather chart ! - Copyright ORBIFLY December 2007 - Disclaimer

ORBIFLY MET'MAP TEAM :

Programming & Development : Alexandra Zaïnal
Concept & Development : Baudouin d'Aumeries
Co-Development & Prog : Marc-Olivier Méhu
Technical & hardware support : Manuel Goepfert

Contact : metmap@orbifly.com




SOURCES & CREDITS :

   NOAA